Changping, China
Current Conditions -  °F | °C
As of 6:00 PM on Saturday 29 Nov 2014 (Local Time) from ZBAA Reporting Station
Light Rain Light Rain  
Wind Chill: 39°   Ceiling: Unl
Heat Index: 39°   Visibility: 0.93mi
Dew Point: 36°   Wind: 2mph
Humidity: 87%   Direction: 40°NE
Pressure: 30.12"   Gusts: NA
Location:  40.22°N, 116.2°E
Report Text: ZBAA 291000Z 04001MPS 1500 R01/1400N R36R/1600N R36L/1400N-RABR NSC 04/02 Q1020 NOSIG
Loading
Personal Weather Stations






























Interactive Weather Map New forecast layout! Learn more

10-Day Weather Forecast

Advertisements
Track Severe Weather on mobile